• Join FlightAware (Why Join?)
  • Login
  • US Flag 
11:08AM EDT


 

Airport Tracker/Info


-or-


 

Live Flight TrackerFlight Track Log ✈ SWA1969 ✈ 30-Apr-2013 ✈ KMDW - KPHX

Flight Track Log - Related Links

Times and Time Zones

All times are in EDT time to prevent confusion due to time zone crossing. See the SWA1969 flight status page for this flight to view local times or setup timezone preferences in your user account.

Time Position Orientation Groundspeed Altitude Reporting Facility
EDT Latitude Longitude Course Direction KTS MPH feet Rate Location/Type
01:21PM 41.7667 -87.7833 251° West 166 191 1,900  Level Chicago TRACON
01:22PM 41.7500 -87.8500 251° West 210 242 4,000 1,320 Climbing Chicago TRACON
01:23PM 41.7667 -87.9333 285° West 241 277 4,600 1,980 Climbing Chicago TRACON
01:24PM 41.7833 -88.0167 285° West 258 297 7,800 2,940 Climbing Chicago TRACON
01:25PM 41.7953 -88.1208 279° West 263 303 10,700 2,040 Climbing Chicago Center
01:26PM 41.8017 -88.2231 275° West 278 320 12,100 1,500 Climbing Chicago Center
01:27PM 41.8053 -88.3289 273° West 286 329 13,900 2,100 Climbing Chicago Center
01:28PM 41.8058 -88.4411 270° West 301 346 16,500 2,640 Climbing Chicago Center
01:30PM 41.8044 -88.5853 269° West 321 369 19,400 2,280 Climbing Chicago Center
01:31PM 41.7758 -88.7072 253° West 344 396 21,300 1,800 Climbing Chicago Center
01:32PM 41.7475 -88.8328 253° West 354 407 23,200 1,320 Climbing Chicago Center
01:33PM 41.7175 -88.9656 253° West 372 428 24,100 960 Climbing Chicago Center
01:34PM 41.6831 -89.1142 253° West 415 478 25,200 1,380 Climbing Chicago Center
01:35PM 41.6422 -89.2975 253° West 434 499 27,000 1,440 Climbing Chicago Center
01:36PM 41.6067 -89.4531 253° West 442 509 28,200 1,140 Climbing Chicago Center
01:37PM 41.5728 -89.5936 252° West 447 514 29,400 1,560 Climbing Chicago Center
01:38PM 41.5278 -89.7811 252° West 443 510 31,500 1,740 Climbing Chicago Center
01:39PM 41.4919 -89.9367 253° West 442 509 33,000 1,320 Climbing Chicago Center
01:40PM 41.4561 -90.0872 252° West 432 497 34,300 1,200 Climbing Chicago Center
01:41PM 41.4203 -90.2364 252° West 428 493 35,500 780 Climbing Chicago Center
01:42PM 41.3844 -90.3853 252° West 426 490 36,000 240 Climbing Chicago Center
01:43PM 41.3400 -90.5664 252° West 431 496 36,000  Level Chicago Center
01:44PM 41.2964 -90.7197 249° West 447 514 36,000  Level Chicago Center
01:45PM 41.2544 -90.8672 249° West 431 496 36,000  Level Chicago Center
01:46PM 41.2100 -91.0128 248° West 428 493 36,000  Level Chicago Center
01:47PM 41.1667 -91.1603 249° West 430 495 36,000  Level Chicago Center
01:48PM 41.1239 -91.3069 249° West 426 490 36,000  Level Chicago Center
01:49PM 41.0697 -91.4822 248° West 429 494 36,000  Level Chicago Center
01:50PM 41.0256 -91.6306 249° West 433 498 36,000  Level Chicago Center
01:51PM 40.9825 -91.7683 248° West 431 496 36,000  Level Chicago Center
01:52PM 40.9294 -91.9450 248° West 435 501 36,000  Level Chicago Center
01:53PM 40.8842 -92.0894 248° West 431 496 36,000  Level Chicago Center
01:54PM 40.8389 -92.2342 248° West 431 496 36,000  Level Chicago Center
01:55PM 40.7936 -92.3775 247° West 430 495 36,000  Level Chicago Center
01:56PM 40.7503 -92.5206 248° West 427 491 36,000  Level Chicago Center
01:57PM 40.6956 -92.6922 247° West 428 493 36,000  Level Chicago Center
01:58PM 40.6506 -92.8342 247° West 428 493 36,000  Level Chicago Center
01:59PM 40.6058 -92.9744 247° West 424 488 36,000  Level Kansas City Center
02:00PM 40.5614 -93.1139 247° West 421 484 36,000  Level Kansas City Center
02:01PM 40.5167 -93.2544 247° West 423 487 36,000  Level Kansas City Center
02:03PM 40.4706 -93.3947 247° West 424 488 36,000  Level Kansas City Center
02:04PM 40.4164 -93.5636 247° West 423 487 36,000  Level Kansas City Center
02:05PM 40.3708 -93.7036 247° West 423 487 36,000  Level Kansas City Center
02:06PM 40.3236 -93.8428 246° West 422 486 36,000  Level Kansas City Center
02:07PM 40.2778 -93.9839 247° West 423 487 36,000  Level Kansas City Center
02:08PM 40.2267 -94.1400 247° West 422 486 36,000  Level Kansas City Center
02:09PM 40.1800 -94.2728 245° Southwest 421 484 36,000  Level Kansas City Center
02:10PM 40.1275 -94.4300 246° West 419 482 36,000  Level Kansas City Center
02:11PM 40.0833 -94.5619 246° West 421 484 36,000  Level Kansas City Center
02:12PM 40.0308 -94.7178 246° West 420 483 36,000  Level Kansas City Center
02:13PM 39.9853 -94.8511 246° West 421 484 36,000  Level Kansas City Center
02:14PM 39.9314 -95.0053 246° West 421 484 36,000  Level Kansas City Center
02:15PM 39.8833 -95.1336 244° Southwest 415 478 36,000  Level Kansas City Center
02:16PM 39.8267 -95.2864 244° Southwest 419 482 36,000  Level Kansas City Center
02:17PM 39.7792 -95.4161 245° Southwest 417 480 36,000  Level Kansas City Center
02:18PM 39.7217 -95.5683 244° Southwest 422 486 36,000  Level Kansas City Center
02:19PM 39.6731 -95.6967 244° Southwest 418 481 36,000 -540 Level Kansas City Center
02:20PM 39.6156 -95.8486 244° Southwest 423 487 35,000 -1,020 Descending Kansas City Center
02:21PM 39.5661 -95.9783 244° Southwest 421 484 34,000 -540 Descending Kansas City Center
02:22PM 39.5097 -96.1267 244° Southwest 414 476 34,000  Level Kansas City Center
02:23PM 39.4600 -96.2553 243° Southwest 415 478 34,000  Level Kansas City Center
02:24PM 39.4064 -96.3900 243° Southwest 419 482 34,000  Level Kansas City Center
02:25PM 39.3508 -96.5375 244° Southwest 426 490 34,000  Level Kansas City Center
02:26PM 39.2919 -96.6878 243° Southwest 423 487 34,000  Level Kansas City Center
02:27PM 39.2414 -96.8189 244° Southwest 425 489 34,000  Level Kansas City Center
02:28PM 39.1822 -96.9681 243° Southwest 420 483 34,000  Level Kansas City Center
02:29PM 39.1317 -97.0978 243° Southwest 421 484 34,000  Level Kansas City Center
02:30PM 39.0739 -97.2483 244° Southwest 422 486 34,000  Level Kansas City Center
02:31PM 39.0228 -97.3775 243° Southwest 422 486 34,000  Level Kansas City Center
02:32PM 38.9664 -97.5189 243° Southwest 424 488 34,000  Level Kansas City Center
02:34PM 38.9125 -97.6589 244° Southwest 425 489 34,000  Level Kansas City Center
02:35PM 38.8722 -97.7942 249° West 424 488 34,000  Level Kansas City Center
02:36PM 38.8256 -97.9439 248° West 427 491 34,000  Level Kansas City Center
02:37PM 38.7817 -98.0844 248° West 428 493 34,000  Level Kansas City Center
02:38PM 38.7381 -98.2256 248° West 427 491 34,000 480 Level Kansas City Center
02:39PM 38.6806 -98.3925 246° West 430 495 35,000 480 Climbing Kansas City Center
02:40PM 38.6267 -98.5258 243° Southwest 425 489 35,000  Level Kansas City Center
02:41PM 38.5722 -98.6606 243° Southwest 428 493 35,000  Level Kansas City Center
02:42PM 38.5178 -98.7944 243° Southwest 428 493 35,000  Level Kansas City Center
02:43PM 38.4619 -98.9292 242° Southwest 430 495 35,000  Level Kansas City Center
02:44PM 38.4081 -99.0631 243° Southwest 427 491 35,000 60 Level Kansas City Center
02:45PM 38.3417 -99.2231 242° Southwest 427 491 35,200 480 Climbing Kansas City Center
02:46PM 38.2853 -99.3578 242° Southwest 430 495 36,000 360 Climbing Kansas City Center
02:47PM 38.2289 -99.4919 242° Southwest 431 496 36,000  Level Kansas City Center
02:48PM 38.1842 -99.6539 251° West 428 493 36,000  Level Kansas City Center
02:50PM 38.0994 -99.9492 250° West 430 495 36,000  Level Kansas City Center
02:51PM 38.0594 -100.0844 249° West 430 495 36,000  Level Kansas City Center
02:52PM 38.0139 -100.2417 250° West 427 491 36,000  Level Kansas City Center
02:53PM 37.9750 -100.3758 250° West 425 489 36,000  Level Kansas City Center
02:54PM 37.9292 -100.5317 250° West 424 488 36,000  Level Kansas City Center
02:55PM 37.8889 -100.6664 249° West 426 490 36,000  Level Kansas City Center
02:56PM 37.8422 -100.8247 250° West 432 497 36,000  Level Kansas City Center
02:57PM 37.8017 -100.9597 249° West 436 502 36,000  Level Kansas City Center
02:58PM 37.7550 -101.1100 249° West 437 503 36,000  Level Kansas City Center
02:59PM 37.7117 -101.2542 249° West 439 505 36,000  Level Kansas City Center
03:00PM 37.6628 -101.4147 249° West 440 506 36,000  Level Kansas City Center
03:01PM 37.6208 -101.5528 249° West 442 509 36,000  Level Kansas City Center
03:03PM 37.5714 -101.7125 249° West 439 505 36,000  Level Kansas City Center
03:04PM 37.5300 -101.8483 249° West 437 503 36,000  Level Kansas City Center
03:04PM 37.5022 -101.9397 249° West 433 498 36,000  Level Albuquerque Center
03:05PM 37.4589 -102.0756 248° West 435 501 36,000  Level Albuquerque Center
03:06PM 37.4111 -102.2336 249° West 434 499 36,000  Level Albuquerque Center
03:07PM 37.3675 -102.3722 248° West 437 503 36,000  Level Albuquerque Center
03:08PM 37.3178 -102.5311 249° West 437 503 36,000  Level Albuquerque Center
03:09PM 37.2744 -102.6672 248° West 438 504 36,000  Level Albuquerque Center
03:10PM 37.2233 -102.8267 248° West 440 506 36,000  Level Albuquerque Center
03:11PM 37.1803 -102.9625 248° West 438 504 36,000  Level Albuquerque Center
03:12PM 37.1344 -103.0992 247° West 441 507 36,000  Level Albuquerque Center
03:13PM 37.0844 -103.2556 248° West 434 499 36,000  Level Albuquerque Center
03:14PM 37.0394 -103.3925 248° West 440 506 36,000  Level Albuquerque Center
03:15PM 36.9883 -103.5508 248° West 439 505 36,000  Level Albuquerque Center
03:16PM 36.9447 -103.6850 248° West 436 502 36,000  Level Albuquerque Center
03:18PM 36.8989 -103.8200 247° West 438 504 36,000  Level Albuquerque Center
03:19PM 36.8478 -103.9783 248° West 438 504 36,000  Level Albuquerque Center
03:20PM 36.8019 -104.1122 247° West 437 503 36,000  Level Albuquerque Center
03:21PM 36.7492 -104.2681 247° West 436 502 36,000  Level Albuquerque Center
03:22PM 36.7044 -104.4014 247° West 434 499 36,000  Level Albuquerque Center
03:23PM 36.6564 -104.5389 246° West 433 498 36,000  Level Albuquerque Center
03:24PM 36.6081 -104.6797 247° West 438 504 36,000  Level Albuquerque Center
03:25PM 36.5608 -104.8200 247° West 438 504 36,000  Level Albuquerque Center
03:26PM 36.5044 -104.9839 247° West 438 504 36,000  Level Albuquerque Center
03:27PM 36.4553 -105.1250 247° West 441 507 36,000  Level Albuquerque Center
03:28PM 36.4058 -105.2681 247° West 447 514 36,000  Level Albuquerque Center
03:29PM 36.3550 -105.4103 246° West 449 517 36,000  Level Albuquerque Center
03:30PM 36.3122 -105.5344 247° West 440 506 36,000  Level Albuquerque Center
03:31PM 36.2639 -105.6714 246° West 436 502 36,000  Level Albuquerque Center
03:32PM 36.2067 -105.8350 247° West 434 499 36,000  Level Albuquerque Center
03:33PM 36.1581 -105.9719 246° West 434 499 36,000  Level Albuquerque Center
03:34PM 36.1092 -106.1072 246° West 433 498 36,000  Level Albuquerque Center
03:35PM 36.0617 -106.2450 247° West 435 501 36,000  Level Albuquerque Center
03:36PM 36.0119 -106.3806 246° West 436 502 36,000  Level Albuquerque Center
03:37PM 35.9631 -106.5178 246° West 437 503 36,000  Level Albuquerque Center
03:38PM 35.9039 -106.6800 246° West 431 496 36,000  Level Albuquerque Center
03:39PM 35.8569 -106.8089 246° West 431 496 36,000  Level Albuquerque Center
03:40PM 35.8097 -106.9369 246° West 429 494 36,000 -600 Level Albuquerque Center
03:41PM 35.7547 -107.0861 246° West 427 491 34,800 -1,020 Descending Albuquerque Center
03:42PM 35.7075 -107.2150 246° West 430 495 34,000 -420 Descending Albuquerque Center
03:43PM 35.6531 -107.3625 246° West 427 491 34,000  Level Albuquerque Center
03:44PM 35.6050 -107.4900 245° Southwest 427 491 34,000  Level Albuquerque Center
03:45PM 35.5569 -107.6172 245° Southwest 428 493 34,000  Level Albuquerque Center
03:46PM 35.5017 -107.7664 246° West 429 494 34,000  Level Albuquerque Center
03:47PM 35.4533 -107.8939 245° Southwest 430 495 34,000  Level Albuquerque Center
03:48PM 35.3969 -108.0456 246° West 433 498 34,000  Level Albuquerque Center
03:49PM 35.3472 -108.1739 245° Southwest 434 499 34,000 -300 Level Albuquerque Center
03:50PM 35.2886 -108.3244 245° Southwest 436 502 33,400 -780 Descending Albuquerque Center
03:51PM 35.2414 -108.4503 245° Southwest 428 493 32,500 -720 Descending Albuquerque Center
03:52PM 35.1928 -108.5767 245° Southwest 426 490 32,000 -300 Descending Albuquerque Center
03:53PM 35.1367 -108.7206 245° Southwest 422 486 32,000  Level Albuquerque Center
03:55PM 35.0878 -108.8469 245° Southwest 426 490 32,000  Level Albuquerque Center
03:56PM 35.0306 -108.9931 244° Southwest 425 489 32,000  Level Albuquerque Center
03:57PM 34.9819 -109.1194 245° Southwest 428 493 32,000  Level Albuquerque Center
03:58PM 34.9333 -109.2453 245° Southwest 428 493 32,000  Level Albuquerque Center
03:59PM 34.8806 -109.3947 247° West 429 494 32,000  Level Albuquerque Center
04:00PM 34.8328 -109.5197 245° Southwest 426 490 32,000  Level Albuquerque Center
04:01PM 34.7778 -109.6661 245° Southwest 425 489 32,000  Level Albuquerque Center
04:02PM 34.7306 -109.7958 246° West 432 497 32,000  Level Albuquerque Center
04:03PM 34.6758 -109.9458 246° West 434 499 32,000  Level Albuquerque Center
04:04PM 34.6278 -110.0711 245° Southwest 430 495 32,000  Level Albuquerque Center
04:05PM 34.5836 -110.2047 248° West 440 506 32,000  Level Albuquerque Center
04:06PM 34.5247 -110.3450 243° Southwest 425 489 32,000 -840 Level Albuquerque Center
04:07PM 34.4811 -110.4686 247° West 427 491 30,300 -1,860 Descending Albuquerque Center
04:08PM 34.4350 -110.5950 246° West 415 478 28,200 -2,040 Descending Albuquerque Center
04:09PM 34.3889 -110.7156 245° Southwest 401 461 26,200 -2,100 Descending Albuquerque Center
04:10PM 34.3194 -110.8456 237° Southwest 387 445 23,900 -2,040 Descending Albuquerque Center
04:11PM 34.2469 -110.9367 226° Southwest 379 436 22,000 -1,440 Descending Albuquerque Center
04:12PM 34.1778 -111.0247 226° Southwest 370 426 21,000 -1,260 Descending Albuquerque Center
04:13PM 34.1158 -111.1050 227° Southwest 340 391 19,500 -1,560 Descending Albuquerque Center
04:14PM 34.0544 -111.1825 226° Southwest 327 376 17,900 -1,680 Descending Albuquerque Center
04:15PM 33.9947 -111.2608 227° Southwest 321 369 16,100 -1,800 Descending Albuquerque Center
04:16PM 33.9358 -111.3347 226° Southwest 308 354 14,300 -1,680 Descending Albuquerque Center
04:17PM 33.8672 -111.4186 225° Southwest 293 337 12,700 -1,560 Descending Albuquerque Center
04:18PM 33.8039 -111.4719 215° Southwest 278 320 11,200 -1,080 Descending Albuquerque Center
04:19PM 33.7431 -111.5244 216° Southwest 268 308 10,500 -780 Descending Albuquerque Center
04:20PM 33.6897 -111.5692 215° Southwest 237 273 9,700 -960 Descending Albuquerque Center
04:21PM 33.6311 -111.5861 194° South 228 262 8,600 -840 Descending Albuquerque Center
04:22PM 33.5672 -111.5828 178° South 230 265 8,000 -540 Descending Albuquerque Center
04:23PM 33.5097 -111.5803 178° South 208 239 7,600 -780 Descending Albuquerque Center
04:24PM 33.4678 -111.6033 205° Southwest 177 204 6,400 -1,200 Descending Albuquerque Center
04:25PM 33.4411 -111.6653 243° Southwest 195 224 5,200 -720 Descending Albuquerque Center
04:26PM 33.4411 -111.7261 270° West 182 209 5,000 -540 Descending Albuquerque Center
04:27PM 33.4406 -111.7872 269° West 183 211 4,200 -840 Descending Albuquerque Center
04:29PM 33.4408 -111.8503 270° West 188 216 3,300 -900 Descending Albuquerque Center
04:30PM 33.4408 -111.9089 270° West 178 205 2,400 -780 Descending Albuquerque Center
04:31PM 33.4414 -111.9586 271° West 154 177 1,700 -660 Descending Albuquerque Center
04:32PM 33.4489 -112.0094 280° West 154 177 1,100 -600 Descending Albuquerque Center